Time;durP1;ratioP1;P1;durP2;ratioP2;P2;SDS_P1;SDS_P2;PMS_P1;PMS_P2;Temp;Humidity;BMP_temperature;BMP_pressure;BME280_temperature;BME280_humidity;BME280_pressure;Samples;Min_cycle;Max_cycle;Signal;HPM_P1;HPM_P2
2021/12/23 00:00:35;;;;;;;23.30;13.43;;;0.20;99.90;;;;;;5052062;28;20725;-60
2021/12/23 00:03:02;;;;;;;22.70;14.50;;;0.20;99.90;;;;;;5035520;28;20036;-60
2021/12/23 00:05:27;;;;;;;23.73;14.17;;;0.20;99.90;;;;;;5056674;28;21027;-59
2021/12/23 00:07:53;;;;;;;21.30;13.97;;;0.20;99.90;;;;;;5061972;28;20036;-61
2021/12/23 00:10:19;;;;;;;24.50;13.93;;;0.20;99.90;;;;;;5043009;28;20036;-62
2021/12/23 00:12:46;;;;;;;23.47;13.50;;;0.20;99.90;;;;;;5059353;28;20032;-61
2021/12/23 00:15:39;;;;;;;20.97;12.93;;;0.20;99.90;;;;;;5062022;28;20377;-61
2021/12/23 00:26:06;;;;;;;21.30;12.83;;;0.30;99.90;;;;;;5014203;28;20135;-61
2021/12/23 00:28:32;;;;;;;24.80;14.23;;;0.30;99.90;;;;;;5060603;28;20246;-62
2021/12/23 00:30:59;;;;;;;22.33;13.23;;;0.30;99.90;;;;;;5037408;28;20040;-60
2021/12/23 00:33:26;;;;;;;25.45;15.30;;;0.30;99.90;;;;;;5054361;28;20060;-61
2021/12/23 00:35:53;;;;;;;22.42;14.00;;;0.30;99.90;;;;;;5059788;28;20463;-62
2021/12/23 00:38:26;;;;;;;20.30;13.40;;;0.30;99.90;;;;;;5060387;28;20042;-63
2021/12/23 00:40:52;;;;;;;22.25;15.15;;;0.30;99.90;;;;;;5055908;28;20562;-60
2021/12/23 00:43:19;;;;;;;22.20;13.65;;;0.40;99.90;;;;;;5062221;28;20051;-61
2021/12/23 00:45:44;;;;;;;19.77;12.93;;;0.40;99.90;;;;;;5060782;28;20048;-62
2021/12/23 00:48:11;;;;;;;22.10;13.73;;;0.40;99.90;;;;;;5059230;28;20048;-61
2021/12/23 00:50:36;;;;;;;23.38;13.93;;;0.40;99.90;;;;;;5056442;28;20433;-61
2021/12/23 00:53:06;;;;;;;20.60;12.77;;;0.40;99.90;;;;;;5055296;28;20056;-60
2021/12/23 00:55:32;;;;;;;21.27;14.20;;;0.40;99.90;;;;;;5055654;28;20099;-61
2021/12/23 00:57:59;;;;;;;23.23;13.98;;;0.40;99.90;;;;;;5059605;28;20036;-62
2021/12/23 01:00:25;;;;;;;23.47;14.10;;;0.40;99.90;;;;;;5050852;28;22016;-62
2021/12/23 01:02:51;;;;;;;20.80;13.67;;;0.40;99.90;;;;;;5051142;28;20048;-62
2021/12/23 01:05:19;;;;;;;23.63;13.03;;;0.40;99.90;;;;;;5051374;28;20039;-60
2021/12/23 01:07:45;;;;;;;25.67;14.40;;;0.40;99.90;;;;;;5061235;28;20075;-62
2021/12/23 01:10:11;;;;;;;23.63;14.43;;;0.40;99.90;;;;;;5045882;28;20134;-62
2021/12/23 01:12:46;;;;;;;21.70;14.47;;;0.40;99.90;;;;;;5052120;28;21575;-62
2021/12/23 01:17:59;;;;;;;21.70;13.63;;;0.20;99.90;;;;;;5059226;28;20098;-61
2021/12/23 01:20:37;;;;;;;22.45;13.70;;;0.20;99.90;;;;;;5059373;28;20482;-61
2021/12/23 01:23:10;;;;;;;21.20;14.07;;;0.30;99.90;;;;;;5056963;28;20049;-62
2021/12/23 01:25:39;;;;;;;21.25;14.25;;;0.30;99.90;;;;;;5045371;28;20139;-62
2021/12/23 01:28:06;;;;;;;21.73;13.35;;;0.30;99.90;;;;;;5059278;28;20044;-61
2021/12/23 01:30:33;;;;;;;21.33;13.30;;;0.30;99.90;;;;;;5062585;28;20184;-62
2021/12/23 01:32:59;;;;;;;20.00;12.47;;;0.30;99.90;;;;;;5059947;28;20659;-62
2021/12/23 01:35:26;;;;;;;21.30;12.93;;;0.30;99.90;;;;;;5055739;28;20051;-61
2021/12/23 01:37:52;;;;;;;18.75;12.38;;;0.30;99.90;;;;;;5062246;28;20037;-62
2021/12/23 01:40:20;;;;;;;20.80;12.37;;;0.30;99.90;;;;;;5053915;28;20043;-59
2021/12/23 01:42:46;;;;;;;22.75;13.57;;;0.30;99.90;;;;;;5064474;28;20059;-62
2021/12/23 01:45:16;;;;;;;23.37;13.67;;;0.20;99.90;;;;;;5056009;28;20040;-61
2021/12/23 01:47:42;;;;;;;21.57;13.60;;;0.30;99.90;;;;;;5059834;28;20748;-62
2021/12/23 01:50:10;;;;;;;20.33;12.83;;;0.30;99.90;;;;;;5058224;28;20064;-62
2021/12/23 01:52:37;;;;;;;22.00;13.30;;;0.30;99.90;;;;;;5055581;28;20048;-61
2021/12/23 01:55:04;;;;;;;21.27;12.63;;;0.30;99.90;;;;;;5059309;28;20032;-60
2021/12/23 01:57:31;;;;;;;21.35;13.60;;;0.30;99.90;;;;;;5057502;28;20032;-61
2021/12/23 02:00:04;;;;;;;21.70;13.83;;;0.30;99.90;;;;;;5056195;28;20048;-62
2021/12/23 02:02:31;;;;;;;21.90;13.27;;;0.30;99.90;;;;;;5060796;28;20041;-62
2021/12/23 02:04:56;;;;;;;19.97;13.13;;;0.30;99.90;;;;;;5057071;28;20417;-61
2021/12/23 02:07:22;;;;;;;22.67;13.30;;;0.30;99.90;;;;;;5063914;28;20032;-63
2021/12/23 02:09:48;;;;;;;21.90;13.52;;;0.40;99.90;;;;;;5060037;28;20135;-62
2021/12/23 02:12:15;;;;;;;21.97;13.50;;;0.30;99.90;;;;;;5056512;28;20119;-62
2021/12/23 02:14:40;;;;;;;23.88;14.05;;;0.30;99.90;;;;;;5063972;28;20106;-62
2021/12/23 02:17:06;;;;;;;20.25;13.52;;;0.30;99.90;;;;;;5061584;28;20049;-62
2021/12/23 02:19:33;;;;;;;21.17;13.10;;;0.30;99.90;;;;;;5066021;28;20036;-62
2021/12/23 02:21:59;;;;;;;20.10;12.63;;;0.30;99.90;;;;;;5059666;28;20044;-62
2021/12/23 02:24:25;;;;;;;22.33;14.07;;;0.30;99.90;;;;;;5064380;28;20101;-61
2021/12/23 02:26:51;;;;;;;26.00;15.15;;;0.30;99.90;;;;;;5055515;28;20044;-62
2021/12/23 02:29:17;;;;;;;24.03;15.27;;;0.30;99.90;;;;;;5062487;28;20044;-62
2021/12/23 02:31:50;;;;;;;19.95;13.82;;;0.30;99.90;;;;;;5048984;28;20494;-62
2021/12/23 02:34:17;;;;;;;20.35;13.10;;;0.30;99.90;;;;;;5061355;28;20372;-62
2021/12/23 02:36:55;;;;;;;21.20;13.02;;;0.30;99.90;;;;;;5060743;28;20036;-62
2021/12/23 02:39:23;;;;;;;22.65;14.57;;;0.30;99.90;;;;;;5061732;28;20123;-61
2021/12/23 02:41:49;;;;;;;20.17;13.45;;;0.30;99.90;;;;;;5064362;28;20085;-60
2021/12/23 02:44:16;;;;;;;21.37;13.37;;;0.30;99.90;;;;;;5063492;28;20436;-62
2021/12/23 02:46:42;;;;;;;22.90;13.35;;;0.30;99.90;;;;;;5059705;28;20518;-65
2021/12/23 02:49:09;;;;;;;23.30;15.27;;;0.30;99.90;;;;;;5053152;28;20078;-64
2021/12/23 02:51:35;;;;;;;21.63;14.17;;;0.30;99.90;;;;;;5058720;28;20539;-63
2021/12/23 02:54:01;;;;;;;21.45;13.88;;;0.30;99.90;;;;;;5059783;28;20047;-63
2021/12/23 02:56:26;;;;;;;21.67;12.70;;;0.30;99.90;;;;;;5045414;28;20037;-64
2021/12/23 02:58:52;;;;;;;23.08;15.15;;;0.30;99.90;;;;;;5057204;28;20037;-66
2021/12/23 03:01:20;;;;;;;21.27;13.47;;;0.30;99.90;;;;;;5059472;28;20056;-66
2021/12/23 03:03:45;;;;;;;21.23;13.87;;;0.30;99.90;;;;;;5057616;28;20076;-63
2021/12/23 03:06:12;;;;;;;21.80;15.10;;;0.30;99.90;;;;;;5061531;28;20087;-66
2021/12/23 03:08:59;;;;;;;22.40;14.70;;;0.30;99.90;;;;;;5053268;28;20032;-63
2021/12/23 03:11:27;;;;;;;24.33;14.60;;;0.40;99.90;;;;;;5058112;28;20032;-66
2021/12/23 03:13:54;;;;;;;22.13;13.97;;;0.40;99.90;;;;;;5059305;28;20079;-64
2021/12/23 03:16:25;;;;;;;21.67;12.88;;;0.40;99.90;;;;;;5062789;28;20044;-65
2021/12/23 03:18:51;;;;;;;20.27;13.15;;;0.40;99.90;;;;;;5047897;28;20064;-64
2021/12/23 03:21:17;;;;;;;24.02;14.90;;;0.40;99.90;;;;;;5055135;28;21225;-63
2021/12/23 03:23:43;;;;;;;22.48;13.77;;;0.40;99.90;;;;;;5057685;28;20036;-63
2021/12/23 03:26:09;;;;;;;22.33;14.10;;;0.40;99.90;;;;;;5048225;28;20036;-64
2021/12/23 03:28:38;;;;;;;22.30;13.90;;;0.40;99.90;;;;;;5063062;28;20049;-64
2021/12/23 03:31:04;;;;;;;22.00;13.80;;;0.40;99.90;;;;;;5050802;28;20032;-64
2021/12/23 03:33:30;;;;;;;19.25;12.93;;;0.40;99.90;;;;;;5058741;28;20044;-63
2021/12/23 03:35:56;;;;;;;21.57;14.07;;;0.40;99.90;;;;;;5050111;28;20054;-64
2021/12/23 03:38:23;;;;;;;23.60;15.17;;;0.40;99.90;;;;;;5056215;28;20133;-63
2021/12/23 03:40:49;;;;;;;24.70;16.00;;;0.40;99.90;;;;;;5064683;28;20109;-63
2021/12/23 03:43:17;;;;;;;22.48;14.38;;;0.40;99.90;;;;;;5042392;28;20036;-63
2021/12/23 03:45:44;;;;;;;21.43;13.90;;;0.40;99.90;;;;;;5054693;28;20047;-63
2021/12/23 03:48:14;;;;;;;27.63;15.07;;;0.40;99.90;;;;;;5059042;28;20650;-63
2021/12/23 03:50:42;;;;;;;21.63;14.67;;;0.50;99.90;;;;;;5055166;28;20036;-66
2021/12/23 03:53:08;;;;;;;21.30;14.37;;;0.50;99.90;;;;;;5051636;28;20048;-66
2021/12/23 03:55:34;;;;;;;23.70;12.85;;;0.40;99.90;;;;;;5050067;28;20044;-64
2021/12/23 03:57:59;;;;;;;22.13;14.65;;;0.40;99.90;;;;;;5058026;28;20040;-65
2021/12/23 04:00:26;;;;;;;24.90;15.45;;;0.50;99.90;;;;;;5053518;28;20302;-64
2021/12/23 04:02:53;;;;;;;23.17;14.68;;;0.40;99.90;;;;;;5048663;28;20044;-64
2021/12/23 04:05:19;;;;;;;24.35;15.48;;;0.50;99.90;;;;;;5057397;28;20043;-64
2021/12/23 04:07:46;;;;;;;21.77;13.40;;;0.50;99.90;;;;;;5052315;28;20627;-64
2021/12/23 04:10:14;;;;;;;23.27;14.50;;;0.50;99.90;;;;;;5057957;28;20326;-64
2021/12/23 04:12:41;;;;;;;21.47;14.00;;;0.50;99.90;;;;;;5054812;28;20033;-65
2021/12/23 04:15:07;;;;;;;21.13;14.50;;;0.50;99.90;;;;;;5059144;28;20037;-65
2021/12/23 04:17:33;;;;;;;21.38;14.02;;;0.50;99.90;;;;;;5035778;28;20185;-66
2021/12/23 04:20:13;;;;;;;22.50;14.57;;;0.50;99.90;;;;;;5056294;28;20040;-65
2021/12/23 04:22:39;;;;;;;26.37;15.73;;;0.50;99.90;;;;;;5056839;28;20052;-65
2021/12/23 04:25:05;;;;;;;25.58;15.82;;;0.50;99.90;;;;;;5049480;28;20045;-64
2021/12/23 04:27:31;;;;;;;24.27;14.98;;;0.50;99.90;;;;;;5053419;28;20048;-65
2021/12/23 04:29:56;;;;;;;23.00;14.73;;;0.50;99.90;;;;;;5051190;28;20452;-66
2021/12/23 04:32:23;;;;;;;23.45;14.80;;;0.50;99.90;;;;;;5057445;28;20060;-64
2021/12/23 04:34:48;;;;;;;23.65;14.63;;;0.50;99.90;;;;;;5052933;28;20531;-65
2021/12/23 04:37:14;;;;;;;24.83;15.63;;;0.50;99.90;;;;;;5049483;28;20071;-66
2021/12/23 04:39:40;;;;;;;22.10;16.00;;;0.50;99.90;;;;;;5059867;28;20086;-64
2021/12/23 04:42:06;;;;;;;22.90;14.23;;;0.50;99.90;;;;;;5056119;28;20689;-64
2021/12/23 04:44:32;;;;;;;27.08;15.75;;;0.50;99.90;;;;;;5051736;28;20051;-65
2021/12/23 04:46:57;;;;;;;24.80;15.73;;;0.40;99.90;;;;;;5053918;28;20124;-64
2021/12/23 04:49:23;;;;;;;25.02;15.88;;;0.50;99.90;;;;;;5058328;28;20451;-65
2021/12/23 04:51:49;;;;;;;23.92;14.38;;;0.40;99.90;;;;;;5057341;28;20033;-63
2021/12/23 04:54:15;;;;;;;24.83;15.48;;;0.40;99.90;;;;;;5054654;28;20192;-65
2021/12/23 04:56:41;;;;;;;23.35;15.88;;;0.40;99.90;;;;;;5050067;28;20123;-64
2021/12/23 04:59:07;;;;;;;24.83;15.97;;;0.40;99.90;;;;;;5050103;28;20040;-64
2021/12/23 05:01:33;;;;;;;24.15;14.65;;;0.50;99.90;;;;;;5058639;28;20190;-65
2021/12/23 05:04:00;;;;;;;29.35;17.13;;;0.40;99.90;;;;;;5048792;28;20048;-66
2021/12/23 05:06:26;;;;;;;23.50;15.18;;;0.40;99.90;;;;;;5035775;28;20076;-64
2021/12/23 05:08:52;;;;;;;26.63;15.13;;;0.40;99.90;;;;;;5052448;28;20382;-66
2021/12/23 05:11:18;;;;;;;24.90;15.30;;;0.40;99.90;;;;;;5048278;28;20047;-66
2021/12/23 05:13:50;;;;;;;25.20;15.00;;;0.40;99.90;;;;;;5058051;28;20063;-64
2021/12/23 05:16:17;;;;;;;25.27;16.10;;;0.40;99.90;;;;;;5051469;28;20036;-64
2021/12/23 05:18:42;;;;;;;24.85;15.45;;;0.40;99.90;;;;;;5055337;28;20124;-64
2021/12/23 05:21:08;;;;;;;24.17;15.23;;;0.40;99.90;;;;;;5052225;28;20127;-66
2021/12/23 05:23:34;;;;;;;23.53;15.63;;;0.40;99.90;;;;;;5054934;28;20076;-66
2021/12/23 05:26:00;;;;;;;24.42;15.55;;;0.40;99.90;;;;;;5045911;28;20124;-67
2021/12/23 05:28:27;;;;;;;24.80;15.43;;;0.50;99.90;;;;;;5032985;28;20051;-64
2021/12/23 05:30:52;;;;;;;27.23;17.23;;;0.40;99.90;;;;;;5056010;28;20045;-66
2021/12/23 05:33:18;;;;;;;25.10;16.52;;;0.50;99.90;;;;;;5051643;28;20052;-65
2021/12/23 05:35:44;;;;;;;26.23;16.48;;;0.50;99.90;;;;;;5050523;28;20029;-66
2021/12/23 05:38:09;;;;;;;24.60;16.73;;;0.40;99.90;;;;;;5060112;28;20032;-64
2021/12/23 05:40:35;;;;;;;23.40;15.70;;;0.50;99.90;;;;;;5054162;28;20040;-64
2021/12/23 05:43:02;;;;;;;27.37;17.03;;;0.40;99.90;;;;;;5051804;28;20045;-65
2021/12/23 05:45:28;;;;;;;25.90;15.43;;;0.40;99.90;;;;;;5050891;28;20483;-64
2021/12/23 05:47:54;;;;;;;27.40;16.92;;;0.50;99.90;;;;;;5054334;28;20090;-63
2021/12/23 05:50:21;;;;;;;28.38;17.65;;;0.50;99.90;;;;;;5061589;28;20121;-63
2021/12/23 05:52:47;;;;;;;27.77;18.08;;;0.50;99.90;;;;;;5055235;28;20119;-65
2021/12/23 05:55:14;;;;;;;28.30;17.95;;;0.50;99.90;;;;;;5075004;22;20167;-55
2021/12/23 05:57:41;;;;;;;28.23;17.40;;;0.50;99.90;;;;;;5057247;28;20047;-53
2021/12/23 06:00:36;;;;;;;27.15;16.83;;;0.50;99.90;;;;;;5035409;28;20308;-55
2021/12/23 06:03:02;;;;;;;32.65;17.00;;;0.50;99.90;;;;;;5025852;28;20060;-54
2021/12/23 06:05:29;;;;;;;28.50;17.87;;;0.50;99.90;;;;;;5036728;28;20102;-53
2021/12/23 06:07:55;;;;;;;29.05;17.20;;;0.60;99.90;;;;;;5036106;28;20060;-52
2021/12/23 06:10:21;;;;;;;34.80;18.13;;;0.60;99.90;;;;;;5040662;28;20041;-53
2021/12/23 06:12:47;;;;;;;28.67;18.33;;;0.60;99.90;;;;;;5031654;28;20084;-54
2021/12/23 06:15:13;;;;;;;29.35;16.90;;;0.60;99.90;;;;;;5030053;28;20113;-55
2021/12/23 06:17:39;;;;;;;26.02;16.58;;;0.60;99.90;;;;;;5027868;28;20045;-54
2021/12/23 06:20:07;;;;;;;28.80;17.53;;;0.60;99.90;;;;;;5049734;28;21887;-54
2021/12/23 06:22:35;;;;;;;29.75;17.85;;;0.60;99.90;;;;;;5052039;28;20292;-52
2021/12/23 06:25:02;;;;;;;27.77;17.13;;;0.60;99.90;;;;;;5036345;28;20045;-55
2021/12/23 06:27:27;;;;;;;27.55;16.35;;;0.70;99.90;;;;;;5040094;28;20053;-55
2021/12/23 06:29:53;;;;;;;29.55;18.88;;;0.70;99.90;;;;;;5033756;28;20059;-54
2021/12/23 06:32:19;;;;;;;27.10;18.25;;;0.70;99.90;;;;;;5031366;28;20309;-53
2021/12/23 06:34:44;;;;;;;27.08;18.23;;;0.60;99.90;;;;;;5035201;28;20053;-53
2021/12/23 06:37:10;;;;;;;28.80;17.85;;;0.70;99.90;;;;;;5031622;28;20344;-53
2021/12/23 06:39:36;;;;;;;32.50;17.67;;;0.70;99.90;;;;;;5038148;28;20583;-54
2021/12/23 06:42:03;;;;;;;28.80;17.88;;;0.60;99.90;;;;;;5019867;28;20041;-56
2021/12/23 06:44:29;;;;;;;27.52;17.52;;;0.70;99.90;;;;;;5020192;28;20186;-54
2021/12/23 06:46:55;;;;;;;31.60;18.87;;;0.70;99.90;;;;;;5031619;28;20049;-51
2021/12/23 06:49:20;;;;;;;28.23;17.55;;;0.70;99.90;;;;;;5028225;28;20523;-52
2021/12/23 06:51:46;;;;;;;26.98;18.23;;;0.70;99.90;;;;;;5017718;28;20039;-53
2021/12/23 06:54:16;;;;;;;29.77;19.70;;;0.60;99.90;;;;;;5016750;28;20068;-49
2021/12/23 06:56:42;;;;;;;28.42;17.13;;;0.60;99.90;;;;;;5031039;28;20674;-51
2021/12/23 06:59:08;;;;;;;29.33;18.42;;;0.60;99.90;;;;;;5016228;28;20037;-51
2021/12/23 07:01:34;;;;;;;28.35;18.52;;;0.70;99.90;;;;;;5037880;28;20083;-52
2021/12/23 07:04:06;;;;;;;28.33;17.55;;;0.70;99.90;;;;;;5034957;28;20434;-51
2021/12/23 07:06:35;;;;;;;27.08;17.98;;;0.70;99.90;;;;;;5035770;28;20048;-54
2021/12/23 07:09:03;;;;;;;29.27;19.10;;;0.60;99.90;;;;;;5038169;28;20045;-51
2021/12/23 07:11:30;;;;;;;31.33;19.42;;;0.60;99.90;;;;;;5052209;28;20045;-51
2021/12/23 07:13:55;;;;;;;33.72;20.48;;;0.60;99.90;;;;;;5031534;28;20255;-52
2021/12/23 07:16:21;;;;;;;29.63;18.60;;;0.70;99.90;;;;;;5036108;28;20037;-55
2021/12/23 07:18:47;;;;;;;29.25;18.65;;;0.70;99.90;;;;;;5040471;28;20073;-53
2021/12/23 07:21:13;;;;;;;28.27;17.80;;;0.70;99.90;;;;;;5036265;28;20187;-54
2021/12/23 07:23:39;;;;;;;30.35;19.05;;;0.60;99.90;;;;;;5035955;28;20069;-54
2021/12/23 07:26:04;;;;;;;30.05;19.15;;;0.60;99.90;;;;;;5025676;28;20143;-54
2021/12/23 07:28:30;;;;;;;33.53;20.88;;;0.60;99.90;;;;;;5038313;28;20053;-50
2021/12/23 07:30:56;;;;;;;31.42;19.60;;;0.70;99.90;;;;;;5034391;28;20080;-55
2021/12/23 07:33:22;;;;;;;32.42;19.83;;;0.70;99.90;;;;;;5036544;28;20049;-52
2021/12/23 07:35:48;;;;;;;27.38;18.95;;;0.70;99.90;;;;;;5031130;28;20111;-55
2021/12/23 07:38:15;;;;;;;32.03;18.75;;;0.60;99.90;;;;;;5029891;28;20045;-58
2021/12/23 07:40:41;;;;;;;32.20;20.38;;;0.60;99.90;;;;;;5028307;28;20040;-54
2021/12/23 07:43:31;;;;;;;33.60;20.40;;;0.70;99.90;;;;;;5033979;28;20146;-55
2021/12/23 07:45:56;;;;;;;32.30;19.85;;;0.70;99.90;;;;;;5034999;28;20053;-55
2021/12/23 07:48:21;;;;;;;31.35;19.00;;;0.70;99.90;;;;;;5044142;28;20491;-52
2021/12/23 07:50:47;;;;;;;30.00;19.27;;;0.70;99.90;;;;;;5027215;28;20598;-55
2021/12/23 07:53:13;;;;;;;33.40;20.20;;;0.70;99.90;;;;;;5040749;28;20064;-52
2021/12/23 07:55:42;;;;;;;32.78;20.02;;;0.70;99.90;;;;;;5034924;28;20475;-52
2021/12/23 07:58:08;;;;;;;35.80;21.80;;;0.70;99.90;;;;;;5012864;28;20041;-49
2021/12/23 08:00:35;;;;;;;36.45;21.00;;;0.70;99.90;;;;;;5048102;28;20049;-54
2021/12/23 08:03:01;;;;;;;33.60;20.85;;;0.70;99.90;;;;;;5039023;28;20107;-55
2021/12/23 08:05:27;;;;;;;34.65;21.35;;;0.60;99.90;;;;;;5032577;28;20397;-49
2021/12/23 08:07:56;;;;;;;33.22;20.30;;;0.70;99.90;;;;;;5022316;28;20080;-51
2021/12/23 08:10:22;;;;;;;34.20;21.02;;;0.70;99.90;;;;;;5025575;28;20033;-57
2021/12/23 08:12:47;;;;;;;34.70;20.75;;;0.70;99.90;;;;;;4991475;28;20056;-58
2021/12/23 08:15:13;;;;;;;36.63;21.60;;;0.70;99.90;;;;;;5035339;28;20079;-57
2021/12/23 08:17:40;;;;;;;32.22;21.42;;;0.70;99.90;;;;;;5037711;28;20037;-56
2021/12/23 08:20:06;;;;;;;37.75;22.75;;;0.70;99.90;;;;;;5037017;28;20036;-55
2021/12/23 08:22:33;;;;;;;37.22;23.33;;;0.70;99.90;;;;;;5034693;28;20045;-56
2021/12/23 08:24:59;;;;;;;36.67;22.73;;;0.70;99.90;;;;;;5046215;28;20480;-54
2021/12/23 08:27:28;;;;;;;35.85;22.15;;;0.70;99.90;;;;;;5009959;28;20492;-54
2021/12/23 08:29:54;;;;;;;36.55;22.75;;;0.70;99.90;;;;;;5017686;28;20033;-53
2021/12/23 08:32:21;;;;;;;43.53;25.00;;;0.70;99.90;;;;;;5033516;28;20048;-54
2021/12/23 08:34:46;;;;;;;39.97;23.75;;;0.70;99.90;;;;;;5038198;28;20048;-52
2021/12/23 08:37:12;;;;;;;39.40;24.13;;;0.70;99.90;;;;;;5031423;28;20044;-57
2021/12/23 08:39:39;;;;;;;38.80;23.83;;;0.70;99.90;;;;;;5021879;28;20033;-56
2021/12/23 08:42:06;;;;;;;44.90;25.45;;;0.70;99.90;;;;;;5033647;28;20041;-51
2021/12/23 08:44:31;;;;;;;41.90;25.27;;;0.70;99.90;;;;;;5034940;28;20124;-57
2021/12/23 08:46:57;;;;;;;43.67;26.67;;;0.70;99.90;;;;;;4998304;28;20051;-53
2021/12/23 08:49:23;;;;;;;45.60;27.05;;;0.70;99.90;;;;;;5032159;28;20123;-55
2021/12/23 08:51:48;;;;;;;43.10;25.88;;;0.70;99.90;;;;;;5020457;28;20499;-52
2021/12/23 08:54:14;;;;;;;40.95;25.45;;;0.70;99.90;;;;;;5018323;28;20041;-56
2021/12/23 08:56:40;;;;;;;42.30;25.50;;;0.70;99.90;;;;;;5036935;28;20070;-52
2021/12/23 08:59:06;;;;;;;42.60;26.20;;;0.70;99.90;;;;;;5037312;28;20041;-53
2021/12/23 09:01:32;;;;;;;46.67;27.55;;;0.80;99.90;;;;;;5019876;28;20184;-54
2021/12/23 09:03:58;;;;;;;45.80;28.15;;;0.80;99.90;;;;;;5019319;28;20124;-57
2021/12/23 09:06:24;;;;;;;44.88;26.15;;;0.80;99.90;;;;;;5016426;28;20136;-52
2021/12/23 09:08:50;;;;;;;51.10;28.70;;;0.70;99.90;;;;;;5028115;28;20500;-53
2021/12/23 09:11:16;;;;;;;44.50;26.13;;;0.80;99.90;;;;;;5009988;28;20064;-55
2021/12/23 09:13:42;;;;;;;48.60;27.88;;;0.80;99.90;;;;;;5020489;28;20566;-54
2021/12/23 09:16:07;;;;;;;48.25;29.70;;;0.80;99.90;;;;;;5025399;28;20046;-56
2021/12/23 09:18:34;;;;;;;49.03;29.05;;;0.80;99.90;;;;;;5042764;28;20531;-54
2021/12/23 09:20:59;;;;;;;49.20;28.27;;;0.80;99.90;;;;;;5040683;28;20033;-54
2021/12/23 09:23:25;;;;;;;51.80;29.45;;;0.80;99.90;;;;;;5018850;28;20033;-55
2021/12/23 09:25:53;;;;;;;52.95;30.00;;;0.80;99.90;;;;;;5035861;22;20049;-55
2021/12/23 09:33:38;;;;;;;55.92;30.75;;;0.80;99.90;;;;;;5025237;28;20087;-54
2021/12/23 09:36:05;;;;;;;59.20;30.60;;;0.80;99.90;;;;;;5019964;28;20476;-58
2021/12/23 09:38:30;;;;;;;59.15;31.45;;;0.80;99.90;;;;;;5017470;28;20116;-56
2021/12/23 09:41:04;;;;;;;61.00;33.13;;;0.80;99.90;;;;;;5019231;28;20125;-56
2021/12/23 09:43:31;;;;;;;66.43;34.70;;;0.80;99.90;;;;;;5022396;28;20041;-55
2021/12/23 09:45:58;;;;;;;68.03;34.65;;;0.80;99.90;;;;;;5018911;28;20033;-53
2021/12/23 09:48:27;;;;;;;67.45;35.22;;;0.80;99.90;;;;;;5021058;28;20103;-54
2021/12/23 09:50:54;;;;;;;69.55;36.28;;;0.80;99.90;;;;;;5017541;28;20046;-54
2021/12/23 09:53:22;;;;;;;68.93;36.28;;;0.80;99.90;;;;;;5020944;28;20060;-53
2021/12/23 09:55:49;;;;;;;66.53;34.63;;;0.90;99.90;;;;;;5020249;28;20042;-53
2021/12/23 09:58:16;;;;;;;75.93;38.33;;;0.80;99.90;;;;;;5018773;28;20116;-53
2021/12/23 10:00:45;;;;;;;70.47;35.72;;;0.90;99.90;;;;;;5020901;28;20111;-52
2021/12/23 10:03:21;;;;;;;73.13;36.70;;;0.90;99.90;;;;;;5039332;28;20053;-52
2021/12/23 10:05:47;;;;;;;75.80;37.83;;;0.90;99.90;;;;;;5021976;28;20681;-55
2021/12/23 10:08:15;;;;;;;76.72;37.58;;;0.90;99.90;;;;;;5012426;28;20175;-57
2021/12/23 10:10:56;;;;;;;77.90;39.03;;;1.00;99.90;;;;;;5016362;28;20117;-56
2021/12/23 10:38:27;;;;;;;86.72;40.78;;;1.10;99.90;;;;;;5022658;28;20037;-55
2021/12/23 10:41:03;;;;;;;91.03;42.05;;;1.10;99.90;;;;;;5023757;28;20120;-56
2021/12/23 10:43:38;;;;;;;89.75;39.75;;;1.00;99.90;;;;;;5018522;28;22138;-51
2021/12/23 10:46:20;;;;;;;79.68;38.67;;;1.00;99.90;;;;;;5014129;28;20483;-54
2021/12/23 10:51:57;;;;;;;85.05;38.50;;;1.00;99.90;;;;;;5019999;28;20129;-52
2021/12/23 11:00:33;;;;;;;75.82;38.42;;;1.00;99.90;;;;;;5023866;28;20041;-51
2021/12/23 11:03:17;;;;;;;85.88;40.60;;;1.10;99.90;;;;;;5014511;28;20041;-56
2021/12/23 11:06:01;;;;;;;86.30;39.13;;;1.10;99.90;;;;;;5041155;28;20041;-54
2021/12/23 11:11:23;;;;;;;85.63;39.40;;;1.10;99.90;;;;;;5022468;28;20057;-56
2021/12/23 11:28:36;;;;;;;73.60;35.45;;;1.10;99.90;;;;;;5022816;28;20590;-55
2021/12/23 11:42:02;;;;;;;88.13;40.28;;;1.10;99.90;;;;;;5025902;28;20053;-56
2021/12/23 11:44:31;;;;;;;85.20;39.22;;;1.10;99.90;;;;;;5021087;28;20160;-56
2021/12/23 11:47:07;;;;;;;77.65;39.22;;;1.20;99.90;;;;;;5007937;28;20045;-55
2021/12/23 11:49:35;;;;;;;80.28;39.22;;;1.20;99.90;;;;;;5021516;28;20511;-57
2021/12/23 11:52:01;;;;;;;87.20;39.67;;;1.20;99.90;;;;;;5023502;28;20507;-57
2021/12/23 11:54:31;;;;;;;85.13;40.63;;;1.20;99.90;;;;;;5016981;28;20040;-57
2021/12/23 11:57:16;;;;;;;79.15;39.33;;;1.30;99.90;;;;;;5024417;28;20694;-55
2021/12/23 11:59:46;;;;;;;81.78;40.55;;;1.20;99.90;;;;;;5056166;22;20061;-62
2021/12/23 12:02:18;;;;;;;80.32;38.28;;;1.30;99.90;;;;;;5021326;28;20089;-62
2021/12/23 12:04:45;;;;;;;85.13;39.92;;;1.30;99.90;;;;;;5017324;28;20585;-62
2021/12/23 12:07:19;;;;;;;82.03;37.72;;;1.30;99.90;;;;;;5038160;28;20044;-63
2021/12/23 12:10:08;;;;;;;82.15;39.08;;;1.40;99.90;;;;;;5054525;28;20065;-64
2021/12/23 12:12:54;;;;;;;83.97;38.58;;;1.30;99.90;;;;;;5032888;28;20122;-62
2021/12/23 12:15:50;;;;;;;82.68;40.20;;;1.30;99.90;;;;;;5022071;28;20052;-64
2021/12/23 12:18:22;;;;;;;88.07;40.40;;;1.40;99.90;;;;;;5015095;28;20043;-63
2021/12/23 12:21:02;;;;;;;85.03;39.63;;;1.40;99.90;;;;;;5039122;28;20120;-64
2021/12/23 12:23:36;;;;;;;84.95;41.20;;;1.40;99.90;;;;;;5035057;28;20421;-62
2021/12/23 12:26:26;;;;;;;88.72;41.83;;;1.40;99.90;;;;;;5035333;28;20040;-63
2021/12/23 12:28:55;;;;;;;76.75;36.05;;;1.40;99.90;;;;;;5046121;28;20037;-64
2021/12/23 12:31:23;;;;;;;81.90;38.10;;;1.40;99.90;;;;;;5021394;28;20044;-62
2021/12/23 12:33:57;;;;;;;87.05;38.20;;;1.40;99.90;;;;;;5037608;28;20493;-63
2021/12/23 12:36:24;;;;;;;80.97;37.85;;;1.40;99.90;;;;;;5039291;28;20040;-62
2021/12/23 12:39:10;;;;;;;88.47;40.67;;;1.40;99.90;;;;;;5040500;28;20033;-62
2021/12/23 12:41:38;;;;;;;84.05;39.03;;;1.40;99.90;;;;;;5034311;28;20052;-62
2021/12/23 12:49:44;;;;;;;79.28;39.67;;;1.50;99.90;;;;;;5038653;28;20380;-62
2021/12/23 12:52:35;;;;;;;79.75;37.65;;;1.50;99.90;;;;;;5040185;28;20040;-63
2021/12/23 12:55:17;;;;;;;98.22;40.63;;;1.40;99.90;;;;;;5041779;28;20061;-62
2021/12/23 12:58:02;;;;;;;90.47;39.83;;;1.50;99.90;;;;;;5039384;28;20041;-63
2021/12/23 13:00:33;;;;;;;81.03;39.28;;;1.50;99.90;;;;;;5034898;28;20090;-63
2021/12/23 13:03:08;;;;;;;84.20;39.80;;;1.50;99.90;;;;;;5043560;28;20455;-62
2021/12/23 13:05:44;;;;;;;82.50;39.05;;;1.50;99.90;;;;;;5035542;28;20045;-63
2021/12/23 13:08:19;;;;;;;86.45;37.97;;;1.50;99.90;;;;;;5039252;28;20059;-64
2021/12/23 13:10:48;;;;;;;89.72;39.60;;;1.50;99.90;;;;;;5057749;28;20036;-63
2021/12/23 13:13:36;;;;;;;89.78;39.70;;;1.50;99.90;;;;;;5039291;28;20047;-64
2021/12/23 13:16:14;;;;;;;85.97;40.35;;;1.60;99.90;;;;;;5043174;28;20053;-63
2021/12/23 13:18:41;;;;;;;91.63;41.67;;;1.60;99.90;;;;;;5032637;28;20043;-63
2021/12/23 13:21:08;;;;;;;79.43;37.65;;;1.60;99.90;;;;;;5028800;28;20037;-62
2021/12/23 13:23:45;;;;;;;82.82;37.25;;;1.60;99.90;;;;;;5038657;28;20037;-65
2021/12/23 13:26:16;;;;;;;86.72;38.20;;;1.60;99.90;;;;;;5033625;28;20049;-64
2021/12/23 13:28:49;;;;;;;82.07;36.17;;;1.60;99.90;;;;;;5041583;28;20063;-63
2021/12/23 13:31:28;;;;;;;84.20;39.45;;;1.60;99.90;;;;;;5036324;28;20424;-63
2021/12/23 13:33:59;;;;;;;85.07;37.80;;;1.60;99.90;;;;;;5035301;28;20069;-63
2021/12/23 13:36:26;;;;;;;88.05;38.03;;;1.60;99.90;;;;;;5021171;28;20571;-62
2021/12/23 13:39:04;;;;;;;82.63;39.03;;;1.60;99.90;;;;;;5038639;28;20064;-63
2021/12/23 13:41:32;;;;;;;83.50;37.10;;;1.60;99.90;;;;;;5036532;28;20063;-64
2021/12/23 13:44:15;;;;;;;84.22;39.97;;;1.60;99.90;;;;;;5041554;28;20064;-63
2021/12/23 13:46:55;;;;;;;83.85;39.80;;;1.70;99.90;;;;;;5029052;28;20237;-64
2021/12/23 13:49:34;;;;;;;79.10;36.38;;;1.60;99.90;;;;;;5055454;28;20116;-63
2021/12/23 13:52:00;;;;;;;87.38;37.97;;;1.70;99.90;;;;;;5041788;28;20091;-64
2021/12/23 13:54:35;;;;;;;83.70;37.08;;;1.70;99.90;;;;;;5040253;28;20048;-64
2021/12/23 13:57:02;;;;;;;87.75;39.15;;;1.70;99.90;;;;;;5036868;28;20042;-63
2021/12/23 13:59:29;;;;;;;94.55;39.38;;;1.70;99.90;;;;;;5037561;28;20482;-63
2021/12/23 14:02:11;;;;;;;86.53;39.22;;;1.70;99.90;;;;;;5048385;28;20068;-62
2021/12/23 14:04:41;;;;;;;86.07;39.38;;;1.80;99.90;;;;;;5041027;28;22106;-63
2021/12/23 14:07:16;;;;;;;86.90;39.25;;;1.80;99.90;;;;;;5040187;28;20045;-63